Time;durP1;ratioP1;P1;durP2;ratioP2;P2;SDS_P1;SDS_P2;PMS_P1;PMS_P2;Temp;Humidity;BMP_temperature;BMP_pressure;BME280_temperature;BME280_humidity;BME280_pressure;Samples;Min_cycle;Max_cycle;Signal;HPM_P1;HPM_P2
2021/06/16 00:01:41;;;;;;;;;;;25.10;38.10;;;;;;1576867;74;761;-64
2021/06/16 00:03:43;;;;;;;;;;;25.30;38.20;;;;;;1583514;74;1150;-66
2021/06/16 00:05:45;;;;;;;;;;;25.10;38.30;;;;;;1579296;74;893;-67
2021/06/16 00:07:47;;;;;;;;;;;25.20;38.00;;;;;;1577407;74;731;-67
2021/06/16 00:09:49;;;;;;;;;;;25.20;38.00;;;;;;1572297;74;783;-67
2021/06/16 00:11:51;;;;;;;;;;;25.20;38.00;;;;;;1585941;74;730;-66
2021/06/16 00:13:53;;;;;;;;;;;25.10;38.00;;;;;;1592748;74;1961;-63
2021/06/16 00:15:55;;;;;;;;;;;25.10;38.10;;;;;;1576864;74;759;-66
2021/06/16 00:17:57;;;;;;;;;;;25.20;38.00;;;;;;1584918;74;719;-67
2021/06/16 00:19:59;;;;;;;;;;;25.10;37.90;;;;;;1575956;74;743;-66
2021/06/16 00:22:01;;;;;;;;;;;25.20;38.30;;;;;;1583131;74;764;-67
2021/06/16 00:24:03;;;;;;;;;;;25.10;38.20;;;;;;1585550;74;1138;-66
2021/06/16 00:26:05;;;;;;;;;;;25.20;38.60;;;;;;1586638;74;771;-66
2021/06/16 00:28:06;;;;;;;;;;;25.20;38.30;;;;;;1581487;74;822;-65
2021/06/16 00:30:09;;;;;;;;;;;25.20;37.90;;;;;;1579675;74;734;-67
2021/06/16 00:32:11;;;;;;;;;;;25.20;37.90;;;;;;1569252;74;740;-67
2021/06/16 00:34:13;;;;;;;;;;;25.20;38.10;;;;;;1584969;74;1947;-66
2021/06/16 00:36:15;;;;;;;;;;;25.10;38.30;;;;;;1575448;74;812;-65
2021/06/16 00:38:16;;;;;;;;;;;25.20;38.30;;;;;;1570057;74;742;-64
2021/06/16 00:40:20;;;;;;;;;;;25.10;38.00;;;;;;1584042;74;798;-65
2021/06/16 00:42:24;;;;;;;;;;;25.20;38.40;;;;;;1569307;74;1143;-65
2021/06/16 00:44:25;;;;;;;;;;;25.20;38.50;;;;;;1577440;74;1463;-66
2021/06/16 00:46:27;;;;;;;;;;;25.20;38.60;;;;;;1586708;74;796;-62
2021/06/16 00:48:29;;;;;;;;;;;25.20;38.60;;;;;;1585871;74;773;-65
2021/06/16 00:50:32;;;;;;;;;;;25.20;38.80;;;;;;1582395;74;799;-66
2021/06/16 00:52:34;;;;;;;;;;;25.20;38.40;;;;;;1580546;74;1162;-66
2021/06/16 00:54:36;;;;;;;;;;;25.20;38.60;;;;;;1578624;74;1941;-67
2021/06/16 00:56:39;;;;;;;;;;;25.10;38.40;;;;;;1576292;74;784;-64
2021/06/16 00:58:41;;;;;;;;;;;25.20;38.80;;;;;;1581017;74;648;-66
2021/06/16 01:00:53;;;;;;;;;;;25.20;38.90;;;;;;1579596;74;773;-67
2021/06/16 01:02:59;;;;;;;;;;;25.20;39.00;;;;;;1575887;74;1156;-66
2021/06/16 01:05:01;;;;;;;;;;;25.10;38.50;;;;;;1570689;74;779;-65
2021/06/16 01:07:05;;;;;;;;;;;25.10;38.50;;;;;;1580351;74;945;-65
2021/06/16 01:09:11;;;;;;;;;;;25.10;38.40;;;;;;1572292;74;2068;-65
2021/06/16 01:11:13;;;;;;;;;;;25.10;38.40;;;;;;1581327;74;849;-65
2021/06/16 01:13:35;;;;;;;;;;;25.10;38.30;;;;;;1585019;74;1140;-63
2021/06/16 01:15:38;;;;;;;;;;;25.10;38.20;;;;;;1581407;74;789;-65
2021/06/16 01:17:51;;;;;;;;;;;25.10;38.10;;;;;;1574148;74;1947;-65
2021/06/16 01:19:54;;;;;;;;;;;25.10;38.20;;;;;;1574225;74;1282;-65
2021/06/16 01:21:58;;;;;;;;;;;25.10;38.10;;;;;;1577041;74;1596;-66
2021/06/16 01:24:02;;;;;;;;;;;25.10;38.30;;;;;;1584212;74;1150;-65
2021/06/16 01:26:05;;;;;;;;;;;25.10;38.40;;;;;;1583509;74;776;-65
2021/06/16 01:28:07;;;;;;;;;;;25.10;38.30;;;;;;1569087;74;774;-65
2021/06/16 01:30:09;;;;;;;;;;;25.10;38.30;;;;;;1580892;74;1187;-65
2021/06/16 01:32:11;;;;;;;;;;;25.10;38.30;;;;;;1575048;74;689;-65
2021/06/16 01:34:13;;;;;;;;;;;25.20;38.20;;;;;;1573069;74;1947;-65
2021/06/16 01:36:15;;;;;;;;;;;25.10;38.30;;;;;;1575321;74;737;-63
2021/06/16 01:38:17;;;;;;;;;;;25.10;38.40;;;;;;1578484;74;720;-65
2021/06/16 01:40:19;;;;;;;;;;;25.10;38.10;;;;;;1583049;74;711;-66
2021/06/16 01:42:21;;;;;;;;;;;25.10;38.20;;;;;;1578319;74;1088;-65
2021/06/16 01:44:23;;;;;;;;;;;25.10;38.40;;;;;;1575558;74;719;-65
2021/06/16 01:46:25;;;;;;;;;;;25.10;38.20;;;;;;1564305;74;815;-66
2021/06/16 01:48:27;;;;;;;;;;;25.20;38.60;;;;;;1578997;74;781;-64
2021/06/16 01:50:29;;;;;;;;;;;25.20;38.70;;;;;;1574101;74;729;-65
2021/06/16 01:52:31;;;;;;;;;;;25.10;38.60;;;;;;1574900;74;1188;-66
2021/06/16 01:54:33;;;;;;;;;;;25.10;38.80;;;;;;1586758;74;1886;-66
2021/06/16 01:56:36;;;;;;;;;;;25.20;38.80;;;;;;1549964;75;751;-66
2021/06/16 01:58:38;;;;;;;;;;;25.10;38.90;;;;;;1577442;74;948;-65
2021/06/16 02:00:40;;;;;;;;;;;25.20;38.80;;;;;;1568413;74;777;-65
2021/06/16 02:02:41;;;;;;;;;;;25.10;38.70;;;;;;1575502;74;1156;-65
2021/06/16 02:04:43;;;;;;;;;;;25.10;38.40;;;;;;1572408;74;682;-65
2021/06/16 02:06:53;;;;;;;;;;;25.10;38.40;;;;;;1579812;74;787;-65
2021/06/16 02:08:55;;;;;;;;;;;25.10;38.20;;;;;;1581881;74;1962;-65
2021/06/16 02:10:57;;;;;;;;;;;25.10;38.20;;;;;;1579962;74;821;-67
2021/06/16 02:12:59;;;;;;;;;;;25.10;38.60;;;;;;1585761;74;1140;-65
2021/06/16 02:15:03;;;;;;;;;;;25.10;38.60;;;;;;1586516;74;1905;-66
2021/06/16 02:17:12;;;;;;;;;;;25.10;38.90;;;;;;1572916;74;1037;-65
2021/06/16 02:19:17;;;;;;;;;;;25.10;38.90;;;;;;1572910;74;1876;-65
2021/06/16 02:21:19;;;;;;;;;;;25.10;38.60;;;;;;1580739;74;706;-65
2021/06/16 02:23:22;;;;;;;;;;;25.10;38.60;;;;;;1548150;75;1157;-64
2021/06/16 02:25:25;;;;;;;;;;;25.10;38.90;;;;;;1571840;74;777;-65
2021/06/16 02:27:27;;;;;;;;;;;25.10;39.00;;;;;;1578683;74;733;-65
2021/06/16 02:29:29;;;;;;;;;;;25.10;38.90;;;;;;1584907;74;733;-65
2021/06/16 02:31:31;;;;;;;;;;;25.10;39.00;;;;;;1579940;74;768;-65
2021/06/16 02:33:33;;;;;;;;;;;25.10;39.00;;;;;;1571084;74;1141;-62
2021/06/16 02:35:35;;;;;;;;;;;25.10;39.00;;;;;;1592146;74;1933;-65
2021/06/16 02:37:38;;;;;;;;;;;25.10;38.70;;;;;;1572641;74;667;-65
2021/06/16 02:39:42;;;;;;;;;;;25.10;38.60;;;;;;1592019;74;1623;-65
2021/06/16 02:41:44;;;;;;;;;;;25.10;38.90;;;;;;1601704;74;1813;-65
2021/06/16 02:43:46;;;;;;;;;;;25.10;39.00;;;;;;1587728;74;1124;-65
2021/06/16 02:45:48;;;;;;;;;;;25.10;39.00;;;;;;1567008;74;903;-66
2021/06/16 02:47:50;;;;;;;;;;;25.10;38.90;;;;;;1586085;74;719;-66
2021/06/16 02:49:56;;;;;;;;;;;25.10;38.90;;;;;;1580087;74;676;-66
2021/06/16 02:51:59;;;;;;;;;;;25.10;38.70;;;;;;1581345;74;816;-66
2021/06/16 02:54:01;;;;;;;;;;;25.00;38.70;;;;;;1570573;74;1934;-65
2021/06/16 02:56:03;;;;;;;;;;;25.00;38.70;;;;;;1572598;74;802;-65
2021/06/16 02:58:05;;;;;;;;;;;25.10;38.90;;;;;;1585595;74;772;-66
2021/06/16 03:00:08;;;;;;;;;;;25.00;39.70;;;;;;1581458;74;812;-65
2021/06/16 03:02:10;;;;;;;;;;;25.10;39.60;;;;;;1585861;74;669;-68
2021/06/16 03:04:12;;;;;;;;;;;25.10;39.60;;;;;;1586911;74;1140;-63
2021/06/16 03:06:14;;;;;;;;;;;25.10;39.20;;;;;;1591251;74;740;-66
2021/06/16 03:08:15;;;;;;;;;;;25.10;39.10;;;;;;1572038;74;714;-65
2021/06/16 03:10:18;;;;;;;;;;;25.10;39.40;;;;;;1584042;74;764;-65
2021/06/16 03:12:21;;;;;;;;;;;25.10;39.40;;;;;;1593575;74;1153;-65
2021/06/16 03:14:23;;;;;;;;;;;25.10;39.50;;;;;;1589745;74;1921;-68
2021/06/16 03:16:26;;;;;;;;;;;25.10;39.40;;;;;;1576433;74;770;-68
2021/06/16 03:18:28;;;;;;;;;;;25.20;39.50;;;;;;1593525;74;802;-65
2021/06/16 03:20:30;;;;;;;;;;;25.10;39.70;;;;;;1566426;74;636;-66
2021/06/16 03:22:32;;;;;;;;;;;25.10;39.50;;;;;;1591915;74;1139;-66
2021/06/16 03:24:34;;;;;;;;;;;25.20;39.40;;;;;;1593679;74;786;-66
2021/06/16 03:26:36;;;;;;;;;;;25.10;39.50;;;;;;1573258;74;793;-66
2021/06/16 03:28:38;;;;;;;;;;;25.10;39.40;;;;;;1578756;74;689;-66
2021/06/16 03:30:40;;;;;;;;;;;25.10;39.40;;;;;;1583981;74;977;-68
2021/06/16 03:32:42;;;;;;;;;;;25.10;39.50;;;;;;1573413;74;1201;-67
2021/06/16 03:34:44;;;;;;;;;;;25.10;39.20;;;;;;1572506;74;1945;-65
2021/06/16 03:36:46;;;;;;;;;;;25.10;39.20;;;;;;1579249;74;818;-65
2021/06/16 03:38:48;;;;;;;;;;;25.10;39.30;;;;;;1586640;74;764;-64
2021/06/16 03:40:49;;;;;;;;;;;25.10;39.20;;;;;;1571797;74;788;-66
2021/06/16 03:42:51;;;;;;;;;;;25.10;39.30;;;;;;1554169;75;1135;-65
2021/06/16 03:44:54;;;;;;;;;;;25.10;39.20;;;;;;1596590;74;850;-65
2021/06/16 03:46:56;;;;;;;;;;;25.10;39.30;;;;;;1572734;74;831;-65
2021/06/16 03:48:58;;;;;;;;;;;25.10;39.20;;;;;;1561827;74;811;-65
2021/06/16 03:50:59;;;;;;;;;;;25.10;39.10;;;;;;1573033;74;803;-65
2021/06/16 03:53:01;;;;;;;;;;;25.10;39.20;;;;;;1584743;74;1203;-66
2021/06/16 03:55:03;;;;;;;;;;;25.10;39.20;;;;;;1579848;74;1945;-66
2021/06/16 03:57:06;;;;;;;;;;;25.10;39.20;;;;;;1577983;74;785;-67
2021/06/16 03:59:08;;;;;;;;;;;25.10;39.10;;;;;;1578807;74;779;-66
2021/06/16 04:01:13;;;;;;;;;;;25.10;39.20;;;;;;1589186;74;781;-66
2021/06/16 04:03:15;;;;;;;;;;;25.10;39.30;;;;;;1576875;74;1120;-66
2021/06/16 04:05:17;;;;;;;;;;;25.10;39.30;;;;;;1574079;74;783;-65
2021/06/16 04:07:19;;;;;;;;;;;25.00;39.30;;;;;;1572266;74;806;-65
2021/06/16 04:09:21;;;;;;;;;;;25.10;39.40;;;;;;1584825;74;789;-67
2021/06/16 04:11:23;;;;;;;;;;;25.10;39.30;;;;;;1580588;74;741;-66
2021/06/16 04:13:24;;;;;;;;;;;25.10;39.30;;;;;;1572155;74;1135;-66
2021/06/16 04:15:26;;;;;;;;;;;25.10;39.30;;;;;;1575251;74;1934;-67
2021/06/16 04:17:28;;;;;;;;;;;25.10;39.20;;;;;;1577533;74;776;-66
2021/06/16 04:19:30;;;;;;;;;;;25.00;39.70;;;;;;1581044;74;793;-67
2021/06/16 04:21:32;;;;;;;;;;;25.10;39.40;;;;;;1572081;74;760;-66
2021/06/16 04:23:34;;;;;;;;;;;25.10;39.40;;;;;;1590462;74;1148;-65
2021/06/16 04:25:36;;;;;;;;;;;25.00;39.40;;;;;;1566979;74;691;-65
2021/06/16 04:27:38;;;;;;;;;;;25.10;39.50;;;;;;1580009;74;757;-65
2021/06/16 04:29:40;;;;;;;;;;;25.10;39.80;;;;;;1573167;74;771;-65
2021/06/16 04:31:42;;;;;;;;;;;25.00;39.40;;;;;;1566576;74;812;-66
2021/06/16 04:33:45;;;;;;;;;;;25.00;39.40;;;;;;1564550;74;1141;-66
2021/06/16 04:35:47;;;;;;;;;;;25.10;39.50;;;;;;1582315;74;1907;-65
2021/06/16 04:37:49;;;;;;;;;;;25.00;39.70;;;;;;1597573;74;779;-66
2021/06/16 04:39:51;;;;;;;;;;;25.00;39.40;;;;;;1601635;74;808;-65
2021/06/16 04:41:52;;;;;;;;;;;25.10;39.40;;;;;;1579759;74;779;-66
2021/06/16 04:43:54;;;;;;;;;;;25.00;39.60;;;;;;1573129;74;1158;-66
2021/06/16 04:45:56;;;;;;;;;;;25.10;39.60;;;;;;1594716;74;775;-68
2021/06/16 04:47:58;;;;;;;;;;;25.10;39.80;;;;;;1591736;74;813;-66
2021/06/16 04:50:00;;;;;;;;;;;25.00;39.80;;;;;;1570565;74;774;-65
2021/06/16 04:52:02;;;;;;;;;;;25.00;39.90;;;;;;1586733;74;883;-66
2021/06/16 04:54:10;;;;;;;;;;;25.00;39.80;;;;;;1596622;72;220737;-71
2021/06/16 04:56:08;;;;;;;;;;;25.10;40.30;;;;;;1608929;73;1932;-67
2021/06/16 04:58:10;;;;;;;;;;;25.00;40.20;;;;;;1603716;73;964;-71
2021/06/16 05:00:12;;;;;;;;;;;25.00;40.20;;;;;;1607894;74;721;-70
2021/06/16 05:02:15;;;;;;;;;;;25.10;40.20;;;;;;1595973;72;795;-70
2021/06/16 05:04:16;;;;;;;;;;;25.10;40.20;;;;;;1588163;73;1280;-70
2021/06/16 05:06:18;;;;;;;;;;;25.10;40.10;;;;;;1581793;74;775;-71
2021/06/16 05:08:20;;;;;;;;;;;25.00;40.00;;;;;;1587343;74;704;-71
2021/06/16 05:10:22;;;;;;;;;;;25.10;40.00;;;;;;1580365;74;699;-71
2021/06/16 05:12:24;;;;;;;;;;;25.10;40.10;;;;;;1583598;74;783;-71
2021/06/16 05:14:26;;;;;;;;;;;25.10;40.00;;;;;;1579331;74;1115;-71
2021/06/16 05:16:28;;;;;;;;;;;25.10;40.10;;;;;;1588463;74;1930;-69
2021/06/16 05:18:30;;;;;;;;;;;25.10;40.50;;;;;;1578095;74;738;-72
2021/06/16 05:20:32;;;;;;;;;;;25.10;40.40;;;;;;1571774;74;725;-66
2021/06/16 05:22:34;;;;;;;;;;;25.00;40.50;;;;;;1576893;74;756;-68
2021/06/16 05:24:36;;;;;;;;;;;25.10;40.50;;;;;;1581998;74;1103;-65
2021/06/16 05:26:38;;;;;;;;;;;25.10;40.30;;;;;;1578680;73;796;-66
2021/06/16 05:28:40;;;;;;;;;;;25.00;40.00;;;;;;1586055;74;886;-66
2021/06/16 05:30:42;;;;;;;;;;;25.10;40.10;;;;;;1572524;74;801;-66
2021/06/16 05:32:44;;;;;;;;;;;25.00;40.00;;;;;;1571218;74;1131;-65
2021/06/16 05:34:46;;;;;;;;;;;25.00;40.00;;;;;;1590142;74;758;-68
2021/06/16 05:36:48;;;;;;;;;;;24.90;40.20;;;;;;1584340;74;1937;-71
2021/06/16 05:38:50;;;;;;;;;;;24.90;40.60;;;;;;1579223;74;788;-68
2021/06/16 05:40:51;;;;;;;;;;;24.90;40.70;;;;;;1585071;74;716;-71
2021/06/16 05:42:53;;;;;;;;;;;25.00;40.70;;;;;;1579969;74;1083;-67
2021/06/16 05:44:55;;;;;;;;;;;25.10;40.90;;;;;;1582105;74;724;-67
2021/06/16 05:46:57;;;;;;;;;;;25.10;40.70;;;;;;1575788;74;818;-67
2021/06/16 05:48:59;;;;;;;;;;;25.00;40.90;;;;;;1582095;74;723;-68
2021/06/16 05:51:01;;;;;;;;;;;25.10;41.00;;;;;;1574714;74;741;-67
2021/06/16 05:53:03;;;;;;;;;;;25.10;40.90;;;;;;1579852;74;1173;-69
2021/06/16 05:55:05;;;;;;;;;;;25.10;40.90;;;;;;1602448;73;764;-68
2021/06/16 05:57:07;;;;;;;;;;;25.10;40.80;;;;;;1606420;73;1919;-68
2021/06/16 05:59:09;;;;;;;;;;;25.20;40.80;;;;;;1603524;73;872;-67
2021/06/16 06:01:11;;;;;;;;;;;25.20;40.70;;;;;;1601864;73;707;-67
2021/06/16 06:03:12;;;;;;;;;;;25.20;40.60;;;;;;1596960;73;1154;-67
2021/06/16 06:05:14;;;;;;;;;;;25.10;40.70;;;;;;1598322;73;795;-67
2021/06/16 06:07:16;;;;;;;;;;;25.20;40.60;;;;;;1586772;73;967;-70
2021/06/16 06:09:18;;;;;;;;;;;25.30;40.70;;;;;;1609391;73;831;-67
2021/06/16 06:11:20;;;;;;;;;;;25.20;40.50;;;;;;1607031;73;708;-67
2021/06/16 06:13:22;;;;;;;;;;;25.30;40.40;;;;;;1600917;72;1137;-67
2021/06/16 06:15:24;;;;;;;;;;;25.30;40.30;;;;;;1589389;73;1944;-67
2021/06/16 06:17:26;;;;;;;;;;;25.30;40.20;;;;;;1592981;73;666;-67
2021/06/16 06:19:28;;;;;;;;;;;25.40;40.10;;;;;;1593789;73;792;-67
2021/06/16 06:21:31;;;;;;;;;;;25.40;40.60;;;;;;1605264;73;815;-68
2021/06/16 06:23:33;;;;;;;;;;;25.40;40.60;;;;;;1610712;73;1115;-67
2021/06/16 06:25:36;;;;;;;;;;;25.40;40.60;;;;;;1593963;73;621;-67
2021/06/16 06:27:38;;;;;;;;;;;25.30;40.60;;;;;;1590247;73;768;-67
2021/06/16 06:29:40;;;;;;;;;;;25.40;40.60;;;;;;1589346;73;807;-67
2021/06/16 06:31:42;;;;;;;;;;;25.40;40.70;;;;;;1606888;73;760;-67
2021/06/16 06:33:43;;;;;;;;;;;25.40;40.50;;;;;;1605522;73;1219;-67
2021/06/16 06:35:45;;;;;;;;;;;25.50;40.30;;;;;;1597858;73;1948;-67
2021/06/16 06:37:47;;;;;;;;;;;25.50;40.50;;;;;;1597212;73;748;-67
2021/06/16 06:39:49;;;;;;;;;;;25.50;40.50;;;;;;1607046;73;796;-67
2021/06/16 06:41:51;;;;;;;;;;;25.50;40.40;;;;;;1589061;73;828;-67
2021/06/16 06:43:53;;;;;;;;;;;25.60;40.00;;;;;;1597662;73;1125;-67
2021/06/16 06:45:55;;;;;;;;;;;25.60;39.70;;;;;;1595685;73;788;-67
2021/06/16 06:47:57;;;;;;;;;;;25.60;39.80;;;;;;1598781;73;814;-67
2021/06/16 06:49:59;;;;;;;;;;;25.70;39.70;;;;;;1605626;73;719;-67
2021/06/16 06:52:01;;;;;;;;;;;25.70;39.70;;;;;;1602277;73;806;-67
2021/06/16 06:54:02;;;;;;;;;;;25.70;39.80;;;;;;1583596;73;1162;-67
2021/06/16 06:56:04;;;;;;;;;;;25.70;39.80;;;;;;1598844;73;1948;-67
2021/06/16 06:58:06;;;;;;;;;;;25.70;39.70;;;;;;1597081;73;794;-67
2021/06/16 07:00:08;;;;;;;;;;;25.80;40.10;;;;;;1589641;73;714;-67
2021/06/16 07:02:10;;;;;;;;;;;25.80;40.10;;;;;;1596556;73;814;-67
2021/06/16 07:04:12;;;;;;;;;;;25.80;39.80;;;;;;1607157;72;1140;-67
2021/06/16 07:06:14;;;;;;;;;;;25.80;39.70;;;;;;1606240;73;794;-67
2021/06/16 07:08:16;;;;;;;;;;;25.80;40.40;;;;;;1597805;73;777;-67
2021/06/16 07:10:18;;;;;;;;;;;25.80;41.00;;;;;;1610972;73;828;-68
2021/06/16 07:12:20;;;;;;;;;;;25.80;41.20;;;;;;1591928;73;778;-67
2021/06/16 07:14:22;;;;;;;;;;;25.70;41.30;;;;;;1596770;73;1112;-67
2021/06/16 07:16:23;;;;;;;;;;;25.80;40.50;;;;;;1603053;73;1941;-67
2021/06/16 07:18:25;;;;;;;;;;;25.80;40.40;;;;;;1599033;73;724;-67
2021/06/16 07:20:27;;;;;;;;;;;25.80;40.20;;;;;;1602889;73;759;-68
2021/06/16 07:22:29;;;;;;;;;;;25.90;40.00;;;;;;1593887;73;730;-67
2021/06/16 07:24:31;;;;;;;;;;;25.90;40.10;;;;;;1593624;73;1028;-67
2021/06/16 07:26:33;;;;;;;;;;;25.90;40.50;;;;;;1599243;73;803;-67
2021/06/16 07:28:35;;;;;;;;;;;25.90;39.90;;;;;;1604744;73;737;-67
2021/06/16 07:30:37;;;;;;;;;;;25.90;40.40;;;;;;1591225;73;774;-67
2021/06/16 07:32:39;;;;;;;;;;;26.00;41.00;;;;;;1584967;73;1131;-67
2021/06/16 07:34:40;;;;;;;;;;;26.00;40.30;;;;;;1595247;73;768;-68
2021/06/16 07:36:42;;;;;;;;;;;26.00;40.40;;;;;;1601192;73;1945;-68
2021/06/16 07:38:44;;;;;;;;;;;26.00;40.40;;;;;;1603204;73;770;-68
2021/06/16 07:40:46;;;;;;;;;;;26.00;40.70;;;;;;1597856;73;788;-68
2021/06/16 07:42:48;;;;;;;;;;;26.00;41.30;;;;;;1599778;73;1127;-68
2021/06/16 07:44:50;;;;;;;;;;;25.90;40.70;;;;;;1603830;73;717;-68
2021/06/16 07:46:52;;;;;;;;;;;25.90;40.90;;;;;;1600105;73;762;-68
2021/06/16 07:48:54;;;;;;;;;;;26.00;40.80;;;;;;1601498;73;777;-69
2021/06/16 07:50:56;;;;;;;;;;;26.00;40.60;;;;;;1594717;73;717;-68
2021/06/16 07:52:58;;;;;;;;;;;26.00;41.10;;;;;;1600160;73;1158;-68
2021/06/16 07:55:00;;;;;;;;;;;25.90;40.20;;;;;;1599022;73;754;-68
2021/06/16 07:57:02;;;;;;;;;;;26.00;40.90;;;;;;1595758;73;1938;-68
2021/06/16 07:59:04;;;;;;;;;;;26.00;40.90;;;;;;1590868;73;779;-68
2021/06/16 08:01:05;;;;;;;;;;;25.90;40.90;;;;;;1598411;73;744;-68
2021/06/16 08:03:07;;;;;;;;;;;26.00;40.80;;;;;;1602316;72;1121;-68
2021/06/16 08:05:10;;;;;;;;;;;26.00;40.80;;;;;;1610022;73;772;-68
2021/06/16 08:07:11;;;;;;;;;;;26.00;40.70;;;;;;1594603;73;679;-68
2021/06/16 08:09:13;;;;;;;;;;;26.00;40.60;;;;;;1598949;73;944;-68
2021/06/16 08:11:15;;;;;;;;;;;26.00;40.40;;;;;;1605724;73;831;-68
2021/06/16 08:13:18;;;;;;;;;;;26.00;40.20;;;;;;1613081;73;1158;-68
2021/06/16 08:15:19;;;;;;;;;;;26.10;39.90;;;;;;1609857;73;748;-67
2021/06/16 08:17:21;;;;;;;;;;;26.10;39.40;;;;;;1579781;73;1944;-67
2021/06/16 08:19:23;;;;;;;;;;;26.10;39.70;;;;;;1603810;73;786;-68
2021/06/16 08:21:25;;;;;;;;;;;26.10;39.60;;;;;;1603553;73;780;-68
2021/06/16 08:23:27;;;;;;;;;;;26.00;39.40;;;;;;1601349;73;1134;-67
2021/06/16 08:25:29;;;;;;;;;;;26.10;39.40;;;;;;1600333;73;711;-68
2021/06/16 08:27:31;;;;;;;;;;;26.00;39.70;;;;;;1591366;73;784;-67
2021/06/16 08:29:32;;;;;;;;;;;26.00;39.40;;;;;;1586016;73;776;-67
2021/06/16 08:31:34;;;;;;;;;;;25.90;39.40;;;;;;1590928;73;789;-67
2021/06/16 08:33:37;;;;;;;;;;;25.90;39.30;;;;;;1604654;73;1133;-69
2021/06/16 08:35:39;;;;;;;;;;;26.00;39.70;;;;;;1592006;73;752;-68
2021/06/16 08:37:41;;;;;;;;;;;26.10;39.80;;;;;;1604113;73;1922;-68
2021/06/16 08:39:43;;;;;;;;;;;26.00;40.20;;;;;;1604965;73;798;-67
2021/06/16 08:41:45;;;;;;;;;;;25.90;39.70;;;;;;1605619;73;800;-67
2021/06/16 08:43:47;;;;;;;;;;;26.00;40.30;;;;;;1612587;73;1181;-67
2021/06/16 08:45:49;;;;;;;;;;;25.90;39.90;;;;;;1595473;73;716;-67
2021/06/16 08:47:52;;;;;;;;;;;25.90;39.80;;;;;;1603960;73;721;-67
2021/06/16 08:49:55;;;;;;;;;;;26.00;40.10;;;;;;1611113;73;741;-67
2021/06/16 08:51:57;;;;;;;;;;;26.00;39.90;;;;;;1605269;73;757;-67
2021/06/16 08:53:59;;;;;;;;;;;26.00;40.00;;;;;;1603473;73;1133;-67
2021/06/16 08:56:01;;;;;;;;;;;26.00;39.90;;;;;;1600392;73;790;-67
2021/06/16 08:58:03;;;;;;;;;;;26.00;40.00;;;;;;1602555;73;1932;-67
2021/06/16 09:00:05;;;;;;;;;;;25.90;39.30;;;;;;1600873;73;773;-67
2021/06/16 09:02:07;;;;;;;;;;;26.00;39.70;;;;;;1603534;73;783;-67
2021/06/16 09:04:09;;;;;;;;;;;26.00;39.70;;;;;;1601271;73;1141;-65
2021/06/16 09:06:14;;;;;;;;;;;26.00;39.60;;;;;;1603223;73;691;-68
2021/06/16 09:08:22;;;;;;;;;;;26.00;39.60;;;;;;1590220;73;714;-67
2021/06/16 09:10:24;;;;;;;;;;;26.10;39.50;;;;;;1596752;73;1532;-66
2021/06/16 09:12:27;;;;;;;;;;;26.10;39.50;;;;;;1598151;73;771;-66
2021/06/16 09:14:29;;;;;;;;;;;26.10;39.50;;;;;;1589825;73;1069;-67
2021/06/16 09:16:31;;;;;;;;;;;26.00;39.50;;;;;;1600772;73;1950;-66
2021/06/16 09:18:44;;;;;;;;;;;26.00;39.40;;;;;;1590790;73;786;-67
2021/06/16 09:20:47;;;;;;;;;;;26.00;39.40;;;;;;1603682;73;746;-67
2021/06/16 09:22:49;;;;;;;;;;;26.00;39.00;;;;;;1591966;73;1159;-67
2021/06/16 09:24:53;;;;;;;;;;;26.00;39.20;;;;;;1608633;73;786;-67
2021/06/16 09:26:55;;;;;;;;;;;26.00;38.80;;;;;;1597015;73;1438;-67
2021/06/16 09:28:57;;;;;;;;;;;26.00;38.80;;;;;;1596782;73;797;-67
2021/06/16 09:30:59;;;;;;;;;;;26.00;38.90;;;;;;1599618;73;776;-66
2021/06/16 09:33:05;;;;;;;;;;;26.10;38.70;;;;;;1603676;73;1158;-67
2021/06/16 09:35:23;;;;;;;;;;;26.00;38.40;;;;;;1602000;73;736;-66
2021/06/16 09:37:24;;;;;;;;;;;26.00;38.60;;;;;;1597248;73;1958;-67
2021/06/16 09:39:27;;;;;;;;;;;26.00;38.60;;;;;;1604246;73;765;-68
2021/06/16 09:41:29;;;;;;;;;;;26.00;38.50;;;;;;1597850;73;767;-68
2021/06/16 09:43:30;;;;;;;;;;;25.90;37.80;;;;;;1598813;72;1169;-68
2021/06/16 09:45:33;;;;;;;;;;;26.00;38.40;;;;;;1601530;73;787;-68
2021/06/16 09:47:37;;;;;;;;;;;26.00;38.30;;;;;;1603011;73;818;-68
2021/06/16 09:49:49;;;;;;;;;;;25.90;38.00;;;;;;1606336;73;1692;-68
2021/06/16 09:51:51;;;;;;;;;;;26.00;38.40;;;;;;1601214;73;664;-69
2021/06/16 09:53:53;;;;;;;;;;;26.00;38.40;;;;;;1604550;73;1134;-68
2021/06/16 09:55:55;;;;;;;;;;;26.00;38.30;;;;;;1598114;73;837;-68
2021/06/16 09:58:04;;;;;;;;;;;26.00;38.30;;;;;;1571310;74;1941;-68
2021/06/16 10:00:09;;;;;;;;;;;26.00;38.10;;;;;;1586405;73;847;-68
2021/06/16 10:02:16;;;;;;;;;;;26.00;38.30;;;;;;1586227;73;913;-67
2021/06/16 10:04:33;;;;;;;;;;;25.90;37.80;;;;;;1595496;73;1130;-69
2021/06/16 10:06:35;;;;;;;;;;;25.90;37.90;;;;;;1601984;73;785;-68
2021/06/16 10:08:38;;;;;;;;;;;25.90;37.90;;;;;;1591427;73;812;-68
2021/06/16 10:10:40;;;;;;;;;;;25.90;38.00;;;;;;1586081;73;717;-68
2021/06/16 10:12:43;;;;;;;;;;;26.00;38.40;;;;;;1592140;73;1164;-68
2021/06/16 10:14:45;;;;;;;;;;;26.00;38.30;;;;;;1593435;73;961;-68
2021/06/16 10:16:47;;;;;;;;;;;26.00;38.30;;;;;;1591533;73;1941;-69
2021/06/16 10:18:49;;;;;;;;;;;26.00;38.20;;;;;;1595344;73;730;-68
2021/06/16 10:20:55;;;;;;;;;;;26.00;38.20;;;;;;1595816;73;789;-68
2021/06/16 10:22:56;;;;;;;;;;;26.00;38.30;;;;;;1603575;73;1157;-67
2021/06/16 10:24:58;;;;;;;;;;;25.90;37.30;;;;;;1600965;73;819;-68
2021/06/16 10:27:01;;;;;;;;;;;25.90;37.70;;;;;;1599062;73;783;-68
2021/06/16 10:29:04;;;;;;;;;;;25.90;37.80;;;;;;1607552;73;803;-68
2021/06/16 10:31:06;;;;;;;;;;;25.90;37.70;;;;;;1600766;73;735;-68
2021/06/16 10:33:29;;;;;;;;;;;25.80;37.60;;;;;;1600190;72;1153;-68
2021/06/16 10:35:40;;;;;;;;;;;25.80;36.80;;;;;;1599534;73;885;-68
2021/06/16 10:37:39;;;;;;;;;;;25.70;37.30;;;;;;1598748;73;1932;-68
2021/06/16 10:39:41;;;;;;;;;;;25.80;37.10;;;;;;1598467;73;768;-68
2021/06/16 10:41:47;;;;;;;;;;;25.80;37.30;;;;;;1600022;73;783;-68
2021/06/16 10:43:49;;;;;;;;;;;25.80;37.50;;;;;;1604231;72;1136;-68
2021/06/16 10:45:52;;;;;;;;;;;25.80;37.00;;;;;;1581378;74;1205;-68
2021/06/16 10:47:57;;;;;;;;;;;25.80;36.90;;;;;;1596127;73;744;-68
2021/06/16 10:49:59;;;;;;;;;;;25.80;36.80;;;;;;1613017;73;761;-68
2021/06/16 10:52:01;;;;;;;;;;;25.80;37.10;;;;;;1598295;73;756;-68
2021/06/16 10:54:13;;;;;;;;;;;25.70;36.80;;;;;;1563910;72;2104;-68
2021/06/16 10:56:14;;;;;;;;;;;25.70;36.80;;;;;;1534967;75;767;-67
2021/06/16 10:58:16;;;;;;;;;;;25.70;37.10;;;;;;1531859;76;1927;-66
2021/06/16 11:00:20;;;;;;;;;;;25.70;36.10;;;;;;1535953;76;827;-67
2021/06/16 11:02:33;;;;;;;;;;;25.80;35.90;;;;;;1529496;76;1658;-68
2021/06/16 11:04:37;;;;;;;;;;;25.70;36.60;;;;;;1534835;75;1200;-67
2021/06/16 11:06:39;;;;;;;;;;;25.70;36.60;;;;;;1536549;76;1994;-68
2021/06/16 11:08:47;;;;;;;;;;;25.80;36.60;;;;;;1535250;76;815;-68
2021/06/16 11:10:53;;;;;;;;;;;25.70;36.00;;;;;;1534024;76;832;-67
2021/06/16 11:12:55;;;;;;;;;;;25.80;36.60;;;;;;1535948;75;827;-68
2021/06/16 11:14:57;;;;;;;;;;;25.80;36.40;;;;;;1535321;75;1119;-67
2021/06/16 11:17:03;;;;;;;;;;;25.80;36.00;;;;;;1533797;76;785;-68
2021/06/16 11:19:23;;;;;;;;;;;25.80;35.40;;;;;;1535189;76;912;-67
2021/06/16 11:21:25;;;;;;;;;;;25.80;36.30;;;;;;1532610;75;823;-69
2021/06/16 11:23:28;;;;;;;;;;;25.70;36.40;;;;;;1531541;75;1148;-68
2021/06/16 11:25:33;;;;;;;;;;;25.80;36.40;;;;;;1533172;75;1682;-68
2021/06/16 11:27:53;;;;;;;;;;;25.80;36.20;;;;;;1534333;75;756;-68
2021/06/16 11:30:02;;;;;;;;;;;25.80;35.70;;;;;;1533711;76;806;-67
2021/06/16 11:32:11;;;;;;;;;;;25.70;35.20;;;;;;1529994;76;1174;-66
2021/06/16 11:34:14;;;;;;;;;;;25.70;35.50;;;;;;1534811;76;1129;-66
2021/06/16 11:36:19;;;;;;;;;;;25.70;35.10;;;;;;1498489;77;1673;-66
2021/06/16 11:38:23;;;;;;;;;;;25.70;35.60;;;;;;1533790;75;1922;-67
2021/06/16 11:40:26;;;;;;;;;;;25.70;35.70;;;;;;1536861;76;843;-66
2021/06/16 11:42:28;;;;;;;;;;;25.90;35.70;;;;;;1531893;75;602;-67
2021/06/16 11:44:30;;;;;;;;;;;25.90;35.60;;;;;;1533503;76;1132;-66
2021/06/16 11:46:35;;;;;;;;;;;26.00;36.00;;;;;;1535202;76;766;-65
2021/06/16 11:48:37;;;;;;;;;;;26.00;36.10;;;;;;1535826;76;803;-65
2021/06/16 11:50:39;;;;;;;;;;;26.00;36.20;;;;;;1532151;76;669;-66
2021/06/16 11:52:43;;;;;;;;;;;26.00;36.00;;;;;;1528841;75;705;-66
2021/06/16 11:54:46;;;;;;;;;;;26.00;36.20;;;;;;1510149;77;1158;-67
2021/06/16 11:56:50;;;;;;;;;;;26.00;36.20;;;;;;1531863;76;1977;-66
2021/06/16 11:58:51;;;;;;;;;;;26.00;36.30;;;;;;1530416;76;1948;-66
2021/06/16 12:01:10;;;;;;;;;;;26.10;36.00;;;;;;1529381;75;750;-68
2021/06/16 12:03:16;;;;;;;;;;;26.00;36.40;;;;;;1530165;76;1198;-67
2021/06/16 12:05:20;;;;;;;;;;;26.00;36.00;;;;;;1532564;76;737;-68
2021/06/16 12:07:23;;;;;;;;;;;25.90;35.10;;;;;;1530751;76;1687;-69
2021/06/16 12:09:24;;;;;;;;;;;25.90;34.70;;;;;;1542018;76;690;-67
2021/06/16 12:11:28;;;;;;;;;;;25.80;34.90;;;;;;1532594;75;775;-67
2021/06/16 12:13:30;;;;;;;;;;;25.70;34.00;;;;;;1529552;75;1134;-69